Soldiers Grove, Wisconsin
Current Conditions -  °F | °C
As of 6:34 AM on Sunday 21 Dec 2014 (Local Time) from KY51 Reporting Station
Overcast Overcast  
Wind Chill: 23°   Ceiling: 300
Heat Index: 31°   Visibility: 0.5mi
Dew Point: 31°   Wind: 9mph
Humidity: 100%   Direction: 140°SE
Pressure: 30.03"   Gusts: NA
Location:  43.4°N, 90.77°W
Report Text: KY51 211234Z AUTO 14008KT 1/2SM OVC003 00/00 A3003 RMK AO1 T10051005
Loading
Personal Weather Stations






























Interactive Weather Map New forecast layout! Learn more

10-Day Weather Forecast

Advertisements
Track Severe Weather on mobile